createdAt,value
2018-04-11T00:01:32.498Z,17.08
2018-04-11T00:04:00.908Z,19.25
2018-04-11T00:06:29.292Z,15.80
2018-04-11T00:08:58.465Z,19.20
2018-04-11T00:11:26.876Z,23.08
2018-04-11T00:13:56.084Z,16.45
2018-04-11T00:16:24.470Z,18.08
2018-04-11T00:18:52.868Z,21.80
2018-04-11T00:21:21.285Z,25.30
2018-04-11T00:23:49.677Z,16.80
2018-04-11T00:26:18.089Z,21.92
2018-04-11T00:28:46.486Z,21.98
2018-04-11T00:31:15.309Z,24.48
2018-04-11T00:33:43.717Z,24.60
2018-04-11T00:36:12.877Z,26.15
2018-04-11T00:38:41.281Z,22.10
2018-04-11T00:41:10.437Z,20.10
2018-04-11T00:43:38.848Z,21.50
2018-04-11T00:46:07.361Z,22.20
2018-04-11T00:48:35.981Z,22.90
2018-04-11T00:51:04.366Z,20.65
2018-04-11T00:53:32.765Z,22.67
2018-04-11T00:56:01.217Z,23.02
2018-04-11T00:58:29.594Z,23.85
2018-04-11T01:00:58.012Z,31.30
2018-04-11T01:03:26.398Z,23.05
2018-04-11T01:05:55.577Z,21.00
2018-04-11T01:08:23.981Z,24.73
2018-04-11T01:10:52.377Z,23.30
2018-04-11T01:13:20.787Z,31.35
2018-04-11T01:15:49.174Z,24.90
2018-04-11T01:18:17.586Z,30.70
2018-04-11T01:20:46.772Z,24.83
2018-04-11T01:23:15.194Z,25.12
2018-04-11T01:25:43.575Z,23.02
2018-04-11T01:28:11.961Z,25.40
2018-04-11T01:30:40.425Z,22.55
2018-04-11T01:33:08.817Z,23.02
2018-04-11T01:35:37.220Z,23.08
2018-04-11T01:38:05.602Z,26.02
2018-04-11T01:40:34.034Z,23.15
2018-04-11T01:43:02.433Z,21.62
2018-04-11T01:45:30.840Z,21.42
2018-04-11T01:47:59.258Z,22.23
2018-04-11T01:50:28.412Z,19.70
2018-04-11T01:52:56.816Z,23.17
2018-04-11T01:55:25.198Z,20.27
2018-04-11T01:57:54.211Z,20.85
2018-04-11T02:00:24.163Z,20.95
2018-04-11T02:02:52.565Z,22.10
2018-04-11T02:05:21.002Z,21.60
2018-04-11T02:07:49.383Z,31.00
2018-04-11T02:10:17.809Z,20.40
2018-04-11T02:12:46.204Z,20.92
2018-04-11T02:15:14.857Z,20.40
2018-04-11T02:17:43.246Z,24.12
2018-04-11T02:20:11.633Z,25.27
2018-04-11T02:22:40.048Z,23.73
2018-04-11T02:25:08.693Z,21.02
2018-04-11T02:27:37.121Z,20.80
2018-04-11T02:30:05.504Z,22.90
2018-04-11T02:32:34.212Z,23.90
2018-04-11T02:35:02.609Z,21.67
2018-04-11T02:37:31.131Z,24.25
2018-04-11T02:40:00.370Z,26.73
2018-04-11T02:42:28.776Z,23.92
2018-04-11T02:44:57.217Z,20.75
2018-04-11T02:47:25.602Z,22.17
2018-04-11T02:49:54.298Z,24.40
2018-04-11T02:52:22.694Z,22.05
2018-04-11T02:54:51.077Z,23.50
2018-04-11T02:57:19.527Z,23.75
2018-04-11T02:59:47.909Z,24.73
2018-04-11T03:02:16.316Z,33.67
2018-04-11T03:04:44.706Z,23.50
2018-04-11T03:07:13.133Z,23.98
2018-04-11T03:09:41.519Z,27.37
2018-04-11T03:12:09.905Z,23.10
2018-04-11T03:14:38.313Z,34.45
2018-04-11T03:17:06.702Z,22.92
2018-04-11T03:19:35.112Z,22.62
2018-04-11T03:22:03.496Z,23.27
2018-04-11T03:24:32.146Z,24.05
2018-04-11T03:27:01.298Z,22.87
2018-04-11T03:29:29.680Z,22.42
2018-04-11T03:31:58.089Z,22.08
2018-04-11T03:34:26.481Z,22.73
2018-04-11T03:36:55.672Z,25.55
2018-04-11T03:39:24.828Z,21.65
2018-04-11T03:41:53.410Z,27.23
2018-04-11T03:44:21.798Z,25.33
2018-04-11T03:46:50.177Z,23.50
2018-04-11T03:49:18.584Z,31.10
2018-04-11T03:51:46.965Z,21.25
2018-04-11T03:54:15.377Z,22.40
2018-04-11T03:56:43.765Z,24.52
2018-04-11T03:59:12.173Z,23.00
2018-04-11T04:01:40.573Z,33.03
2018-04-11T04:04:09.783Z,24.08
2018-04-11T04:06:38.934Z,23.12
2018-04-11T04:09:07.329Z,32.38
2018-04-11T04:11:35.754Z,23.40
2018-04-11T04:14:22.643Z,25.30
2018-04-11T04:17:08.924Z,25.42
2018-04-11T04:19:49.288Z,26.58
2018-04-11T04:22:17.688Z,27.33
2018-04-11T04:24:46.836Z,24.87
2018-04-11T04:27:15.772Z,26.10
2018-04-11T04:29:45.366Z,24.65
2018-04-11T04:32:17.441Z,21.08
2018-04-11T04:34:47.239Z,24.60
2018-04-11T04:37:16.269Z,25.50
2018-04-11T04:39:45.253Z,24.52
2018-04-11T04:42:14.826Z,30.35
2018-04-11T04:44:44.601Z,22.58
2018-04-11T04:47:13.694Z,24.30
2018-04-11T04:49:48.593Z,22.35
2018-04-11T04:52:18.303Z,19.45
2018-04-11T04:54:47.526Z,19.83
2018-04-11T04:57:16.057Z,23.62
2018-04-11T04:59:44.441Z,23.90
2018-04-11T05:02:12.840Z,22.77
2018-04-11T05:04:41.989Z,19.02
2018-04-11T05:07:10.389Z,20.60
2018-04-11T05:09:38.774Z,25.70
2018-04-11T05:12:07.200Z,19.60
2018-04-11T05:14:35.614Z,20.05
2018-04-11T05:17:04.806Z,21.12
2018-04-11T05:19:33.223Z,21.42
2018-04-11T05:22:02.936Z,17.17
2018-04-11T05:24:32.137Z,32.25
2018-04-11T05:27:01.314Z,19.42
2018-04-11T05:29:29.969Z,18.92
2018-04-11T05:31:58.364Z,16.80
2018-04-11T05:34:26.754Z,23.23
2018-04-11T05:36:55.604Z,15.45
2018-04-11T05:39:23.993Z,17.40
2018-04-11T05:41:52.427Z,18.62
2018-04-11T05:44:21.625Z,19.48
2018-04-11T05:46:50.809Z,17.17
2018-04-11T05:49:20.174Z,21.55
2018-04-11T05:51:48.557Z,21.02
2018-04-11T05:54:16.962Z,21.42
2018-04-11T05:56:45.394Z,18.95
2018-04-11T05:59:13.825Z,43.17
2018-04-11T06:01:42.212Z,22.35
2018-04-11T06:04:11.685Z,22.65
2018-04-11T06:06:40.072Z,23.77
2018-04-11T06:09:08.462Z,23.50
2018-04-11T06:11:37.662Z,19.12
2018-04-11T06:14:06.131Z,24.83
2018-04-11T06:16:35.329Z,22.15
2018-04-11T06:19:03.813Z,23.23
2018-04-11T06:21:32.573Z,27.23
2018-04-11T06:24:00.965Z,22.83
2018-04-11T06:26:30.145Z,22.52
2018-04-11T06:28:58.552Z,25.30
2018-04-11T06:31:27.564Z,16.52
2018-04-11T06:33:56.749Z,19.20
2018-04-11T06:36:25.935Z,19.52
2018-04-11T06:38:54.415Z,19.67
2018-04-11T06:41:22.806Z,18.55
2018-04-11T06:43:51.982Z,15.57
2018-04-11T06:46:21.066Z,18.55
2018-04-11T06:48:49.459Z,18.62
2018-04-11T06:51:18.682Z,15.68
2018-04-11T06:53:47.852Z,14.50
2018-04-11T06:56:16.289Z,16.00
2018-04-11T06:58:44.677Z,14.13
2018-04-11T07:01:13.080Z,11.90
2018-04-11T07:03:41.485Z,22.98
2018-04-11T07:06:10.648Z,10.43
2018-04-11T07:08:39.868Z,12.25
2018-04-11T07:11:08.262Z,17.80
2018-04-11T07:13:38.214Z,15.65
2018-04-11T07:16:08.200Z,14.65
2018-04-11T07:18:37.386Z,7.35
2018-04-11T07:21:05.788Z,10.23
2018-04-11T07:23:34.945Z,27.75
2018-04-11T07:26:03.389Z,20.40
2018-04-11T07:28:31.768Z,16.55
2018-04-11T07:31:00.177Z,15.48
2018-04-11T07:33:28.558Z,10.57
2018-04-11T07:35:57.240Z,9.60
2018-04-11T07:38:25.626Z,16.27
2018-04-11T07:40:54.017Z,7.95
2018-04-11T07:43:22.419Z,6.53
2018-04-11T07:45:51.566Z,7.72
2018-04-11T07:48:20.021Z,5.68
2018-04-11T07:50:48.410Z,6.62
2018-04-11T07:53:16.832Z,11.20
2018-04-11T07:55:45.216Z,9.77
2018-04-11T07:58:14.383Z,7.47
2018-04-11T08:00:42.806Z,4.90
2018-04-11T08:03:11.983Z,3.50
2018-04-11T08:05:41.175Z,6.15
2018-04-11T08:08:09.557Z,4.57
2018-04-11T08:10:38.163Z,5.20
2018-04-11T08:13:07.330Z,11.00
2018-04-11T08:15:35.722Z,4.00
2018-04-11T08:18:04.906Z,8.77
2018-04-11T08:20:33.311Z,4.70
2018-04-11T08:23:02.482Z,3.43
2018-04-11T08:25:30.860Z,7.83
2018-04-11T08:28:00.776Z,5.07
2018-04-11T08:30:29.231Z,3.27
2018-04-11T08:32:57.636Z,4.33
2018-04-11T08:35:26.026Z,9.40
2018-04-11T08:37:55.201Z,5.70
2018-04-11T08:40:23.588Z,8.10
2018-04-11T08:42:51.990Z,9.13
2018-04-11T08:45:21.139Z,6.53
2018-04-11T08:47:49.822Z,5.07
2018-04-11T08:50:18.209Z,6.20
2018-04-11T08:52:46.589Z,6.87
2018-04-11T08:55:14.989Z,5.67
2018-04-11T08:57:43.385Z,5.50
2018-04-11T09:00:12.562Z,6.83
2018-04-11T09:02:40.948Z,5.17
2018-04-11T09:05:09.348Z,6.93
2018-04-11T09:07:38.501Z,4.80
2018-04-11T09:10:06.973Z,5.10
2018-04-11T09:12:35.354Z,8.30
2018-04-11T09:15:03.781Z,7.10
2018-04-11T09:17:32.929Z,5.60
2018-04-11T09:20:01.349Z,5.53
2018-04-11T09:22:30.492Z,4.37
2018-04-11T09:24:58.883Z,6.33
2018-04-11T09:27:27.289Z,11.03
2018-04-11T09:29:55.670Z,8.70
2018-04-11T09:32:24.093Z,5.10
2018-04-11T09:34:52.513Z,6.17
2018-04-11T09:37:21.484Z,5.97
2018-04-11T09:39:49.881Z,7.10
2018-04-11T09:42:18.297Z,7.77
2018-04-11T09:44:47.457Z,4.30
2018-04-11T09:47:15.878Z,12.47
2018-04-11T09:49:45.069Z,4.87
2018-04-11T09:52:14.229Z,4.60
2018-04-11T09:54:42.640Z,4.43
2018-04-11T09:57:11.804Z,9.53
2018-04-11T09:59:40.207Z,5.07
2018-04-11T10:02:09.382Z,7.20
2018-04-11T10:04:37.960Z,4.83
2018-04-11T10:07:06.355Z,14.77
2018-04-11T10:09:35.735Z,6.90
2018-04-11T10:12:04.139Z,6.60
2018-04-11T10:14:32.525Z,13.33
2018-04-11T10:17:00.925Z,7.97
2018-04-11T10:19:30.077Z,3.37
2018-04-11T10:21:58.492Z,6.63
2018-04-11T10:24:27.689Z,4.60
2018-04-11T10:26:56.860Z,6.30
2018-04-11T10:29:25.241Z,6.10
2018-04-11T10:31:53.662Z,10.20
2018-04-11T10:34:22.061Z,8.40
2018-04-11T10:36:50.452Z,6.67
2018-04-11T10:39:18.864Z,6.37
2018-04-11T10:41:47.309Z,10.00
2018-04-11T10:44:15.893Z,5.30
2018-04-11T10:46:44.268Z,5.40
2018-04-11T10:49:12.751Z,5.20
2018-04-11T10:51:41.164Z,5.73
2018-04-11T10:54:09.546Z,8.70
2018-04-11T10:56:37.960Z,5.73
2018-04-11T10:59:06.381Z,8.10
2018-04-11T11:01:34.805Z,6.50
2018-04-11T11:04:03.974Z,6.57
2018-04-11T11:06:32.357Z,10.80
2018-04-11T11:09:00.766Z,6.97
2018-04-11T11:11:29.141Z,5.00
2018-04-11T11:13:58.312Z,7.57
2018-04-11T11:16:36.265Z,8.60
2018-04-11T11:19:04.712Z,7.90
2018-04-11T11:21:33.862Z,7.73
2018-04-11T11:24:02.241Z,5.70
2018-04-11T11:26:30.652Z,8.50
2018-04-11T11:28:59.812Z,11.30
2018-04-11T11:31:28.224Z,8.47
2018-04-11T11:33:56.629Z,6.20
2018-04-11T11:36:25.456Z,6.23
2018-04-11T11:38:53.944Z,8.90
2018-04-11T11:41:22.325Z,12.87
2018-04-11T11:43:50.732Z,14.40
2018-04-11T11:46:20.616Z,5.40
2018-04-11T11:48:49.026Z,4.80
2018-04-11T11:51:18.169Z,8.10
2018-04-11T11:53:46.605Z,7.10
2018-04-11T11:56:15.757Z,11.07
2018-04-11T11:58:44.152Z,8.93
2018-04-11T12:01:12.566Z,7.20
2018-04-11T12:03:41.748Z,5.30
2018-04-11T12:06:10.241Z,6.93
2018-04-11T12:08:39.392Z,6.33
2018-04-11T12:11:07.777Z,6.80
2018-04-11T12:13:36.193Z,5.17
2018-04-11T12:16:05.352Z,5.33
2018-04-11T12:18:33.798Z,10.27
2018-04-11T12:21:02.209Z,8.40
2018-04-11T12:23:30.581Z,6.73
2018-04-11T12:25:59.063Z,5.33
2018-04-11T12:28:27.453Z,5.10
2018-04-11T12:30:56.050Z,12.13
2018-04-11T12:33:24.507Z,11.40
2018-04-11T12:35:52.969Z,30.80
2018-04-11T12:38:21.366Z,7.37
2018-04-11T12:40:49.741Z,4.90
2018-04-11T12:43:18.150Z,7.10
2018-04-11T12:45:46.533Z,5.27
2018-04-11T12:48:15.285Z,12.70
2018-04-11T12:50:43.664Z,5.00
2018-04-11T12:53:12.053Z,6.00
2018-04-11T12:55:40.507Z,4.30
2018-04-11T12:58:09.658Z,8.13
2018-04-11T13:00:38.061Z,7.27
2018-04-11T13:03:07.196Z,6.47
2018-04-11T13:05:35.616Z,9.90
2018-04-11T13:08:04.004Z,5.20
2018-04-11T13:10:33.150Z,5.60
2018-04-11T13:13:01.547Z,6.07
2018-04-11T13:15:29.925Z,10.40
2018-04-11T13:17:58.346Z,7.10
2018-04-11T13:20:26.726Z,7.07
2018-04-11T13:22:56.280Z,6.03
2018-04-11T13:25:24.653Z,6.47
2018-04-11T13:27:53.080Z,7.70
2018-04-11T13:30:22.258Z,6.10
2018-04-11T13:32:50.668Z,11.80
2018-04-11T13:35:19.074Z,5.93
2018-04-11T13:37:47.457Z,6.23
2018-04-11T13:40:16.248Z,5.93
2018-04-11T13:42:44.647Z,19.20
2018-04-11T13:45:13.022Z,4.83
2018-04-11T13:47:41.420Z,5.83
2018-04-11T13:50:09.802Z,5.13
2018-04-11T13:52:38.975Z,8.73
2018-04-11T13:55:07.353Z,4.80
2018-04-11T13:57:35.920Z,5.80
2018-04-11T14:00:04.300Z,5.17
2018-04-11T14:02:32.689Z,6.60
2018-04-11T14:05:01.125Z,7.97
2018-04-11T14:07:29.505Z,4.90
2018-04-11T14:09:57.986Z,7.53
2018-04-11T14:12:26.368Z,9.80
2018-04-11T14:14:54.829Z,11.43
2018-04-11T14:17:24.008Z,6.60
2018-04-11T14:19:52.486Z,7.03
2018-04-11T14:22:21.857Z,12.27
2018-04-11T14:24:50.250Z,7.53
2018-04-11T14:27:18.669Z,21.67
2018-04-11T14:29:47.828Z,16.53
2018-04-11T14:32:16.607Z,11.73
2018-04-11T14:34:44.989Z,7.60
2018-04-11T14:37:13.378Z,8.50
2018-04-11T14:39:41.836Z,8.87
2018-04-11T14:42:10.233Z,10.53
2018-04-11T14:44:38.663Z,7.87
2018-04-11T14:47:07.057Z,6.17
2018-04-11T14:49:35.509Z,6.37
2018-04-11T14:52:04.673Z,6.97
2018-04-11T14:54:33.215Z,10.60
2018-04-11T14:57:01.828Z,11.77
2018-04-11T14:59:31.028Z,9.70
2018-04-11T15:01:59.689Z,14.53
2018-04-11T15:04:28.095Z,8.07
2018-04-11T15:06:56.670Z,9.30
2018-04-11T15:09:25.064Z,11.10
2018-04-11T15:11:53.465Z,9.67
2018-04-11T15:14:22.630Z,11.40
2018-04-11T15:16:51.097Z,13.40
2018-04-11T15:19:19.736Z,8.10
2018-04-11T15:21:48.142Z,10.93
2018-04-11T15:24:16.564Z,7.77
2018-04-11T15:26:45.077Z,11.07
2018-04-11T15:29:14.228Z,12.53
2018-04-11T15:31:42.636Z,15.30
2018-04-11T15:34:11.805Z,10.70
2018-04-11T15:36:40.231Z,21.03
2018-04-11T15:39:08.628Z,14.13
2018-04-11T15:41:37.261Z,10.10
2018-04-11T15:44:05.769Z,16.17
2018-04-11T15:46:39.423Z,15.03
2018-04-11T15:49:08.636Z,10.37
2018-04-11T15:51:37.149Z,15.83
2018-04-11T15:54:06.400Z,10.67
2018-04-11T15:56:34.940Z,15.43
2018-04-11T15:59:03.390Z,20.50
2018-04-11T16:01:33.582Z,18.83
2018-04-11T16:04:02.062Z,9.77
2018-04-11T16:06:31.430Z,19.83
2018-04-11T16:08:59.821Z,14.53
2018-04-11T16:11:28.265Z,15.73
2018-04-11T16:13:57.438Z,14.17
2018-04-11T16:16:25.853Z,12.87
2018-04-11T16:18:54.556Z,19.23
2018-04-11T16:21:24.126Z,14.40
2018-04-11T16:23:53.393Z,20.97
2018-04-11T16:26:22.175Z,15.90
2018-04-11T16:29:16.403Z,16.27
2018-04-11T16:31:56.757Z,13.43
2018-04-11T16:37:24.084Z,11.30
2018-04-11T16:39:52.992Z,15.60
2018-04-11T16:42:25.967Z,10.27
2018-04-11T16:44:58.476Z,31.33
2018-04-11T16:47:30.585Z,23.53
2018-04-11T16:50:04.917Z,22.00
2018-04-11T16:52:36.047Z,13.83
2018-04-11T16:55:06.684Z,12.83
2018-04-11T16:57:35.880Z,12.27
2018-04-11T17:00:04.305Z,12.43
2018-04-11T17:02:32.964Z,12.30
2018-04-11T17:05:01.398Z,11.27
2018-04-11T17:07:31.497Z,11.57
2018-04-11T17:10:00.729Z,17.10
2018-04-11T17:12:29.129Z,18.60
2018-04-11T17:14:57.619Z,13.47
2018-04-11T17:17:26.030Z,17.80
2018-04-11T17:19:54.455Z,28.77
2018-04-11T17:22:40.754Z,14.83
2018-04-11T17:25:27.143Z,33.93
2018-04-11T17:28:13.439Z,21.00
2018-04-11T17:30:57.833Z,20.30
2018-04-11T17:33:27.164Z,25.33
2018-04-11T17:35:56.480Z,15.50
2018-04-11T17:38:25.779Z,15.00
2018-04-11T17:40:55.080Z,19.97
2018-04-11T17:43:25.663Z,18.60
2018-04-11T17:45:54.125Z,22.80
2018-04-11T17:48:22.522Z,18.00
2018-04-11T17:50:50.959Z,18.83
2018-04-11T17:53:19.360Z,19.20
2018-04-11T17:55:47.863Z,16.77
2018-04-11T17:58:16.274Z,14.57
2018-04-11T18:00:45.661Z,23.73
2018-04-11T18:03:14.052Z,16.20
2018-04-11T18:05:42.436Z,17.13
2018-04-11T18:08:11.636Z,15.98
2018-04-11T18:10:40.980Z,16.30
2018-04-11T18:13:09.400Z,29.27
2018-04-11T18:15:37.802Z,15.88
2018-04-11T18:18:07.125Z,15.52
2018-04-11T18:20:35.527Z,25.98
2018-04-11T18:23:03.938Z,21.33
2018-04-11T18:25:32.357Z,21.90
2018-04-11T18:28:00.813Z,19.33
2018-04-11T18:30:30.010Z,27.45
2018-04-11T18:32:59.201Z,21.90
2018-04-11T18:35:28.462Z,16.83
2018-04-11T18:37:57.068Z,24.23
2018-04-11T18:40:25.480Z,16.02
2018-04-11T18:42:54.003Z,25.95
2018-04-11T18:45:22.393Z,21.27
2018-04-11T18:47:50.827Z,20.27
2018-04-11T18:50:19.414Z,19.15
2018-04-11T18:52:47.994Z,19.55
2018-04-11T18:55:16.489Z,16.98
2018-04-11T18:57:45.062Z,21.80
2018-04-11T19:00:13.678Z,19.30
2018-04-11T19:02:42.374Z,16.10
2018-04-11T19:05:10.823Z,18.83
2018-04-11T19:07:39.742Z,18.58
2018-04-11T19:10:08.436Z,19.12
2018-04-11T19:12:36.865Z,17.08
2018-04-11T19:15:05.364Z,19.15
2018-04-11T19:17:33.802Z,16.37
2018-04-11T19:20:03.247Z,17.87
2018-04-11T19:22:31.712Z,17.55
2018-04-11T19:25:00.157Z,19.33
2018-04-11T19:27:29.014Z,18.67
2018-04-11T19:29:57.905Z,23.55
2018-04-11T19:32:26.597Z,23.02
2018-04-11T19:34:55.359Z,22.67
2018-04-11T19:37:23.792Z,25.30
2018-04-11T19:39:52.996Z,22.73
2018-04-11T19:42:22.194Z,20.25
2018-04-11T19:44:51.408Z,25.83
2018-04-11T19:47:20.484Z,16.25
2018-04-11T19:49:49.700Z,19.40
2018-04-11T19:52:18.228Z,20.12
2018-04-11T19:54:48.140Z,27.50
2018-04-11T19:57:16.636Z,16.75
2018-04-11T19:59:45.203Z,18.25
2018-04-11T20:02:13.824Z,31.58
2018-04-11T20:04:42.984Z,17.02
2018-04-11T20:07:11.411Z,27.83
2018-04-11T20:09:40.653Z,17.08
2018-04-11T20:12:09.092Z,14.70
2018-04-11T20:14:38.282Z,24.05
2018-04-11T20:17:07.856Z,17.80
2018-04-11T20:19:36.419Z,18.87
2018-04-11T20:22:04.907Z,15.93
2018-04-11T20:24:33.335Z,16.02
2018-04-11T20:27:02.513Z,19.67
2018-04-11T20:29:30.932Z,17.17
2018-04-11T20:31:59.369Z,24.35
2018-04-11T20:34:28.545Z,22.55
2018-04-11T20:36:57.333Z,20.27
2018-04-11T20:39:25.806Z,19.67
2018-04-11T20:41:54.213Z,15.13
2018-04-11T20:44:22.661Z,24.48
2018-04-11T20:46:51.072Z,15.82
2018-04-11T20:49:19.508Z,15.55
2018-04-11T20:51:47.906Z,14.93
2018-04-11T20:54:16.353Z,20.50
2018-04-11T20:56:44.746Z,14.32
2018-04-11T20:59:13.165Z,13.62
2018-04-11T21:01:41.589Z,14.80
2018-04-11T21:04:09.980Z,17.83
2018-04-11T21:06:38.413Z,15.38
2018-04-11T21:09:06.849Z,31.35
2018-04-11T21:11:35.407Z,25.48
2018-04-11T21:14:03.800Z,16.15
2018-04-11T21:16:32.194Z,18.92
2018-04-11T21:19:01.048Z,20.52
2018-04-11T21:21:29.437Z,19.58
2018-04-11T21:23:57.869Z,17.95
2018-04-11T21:26:26.305Z,22.42
2018-04-11T21:28:55.009Z,26.42
2018-04-11T21:31:23.386Z,18.87
2018-04-11T21:33:51.781Z,16.92
2018-04-11T21:36:20.224Z,31.27
2018-04-11T21:38:48.619Z,18.35
2018-04-11T21:41:17.049Z,20.33
2018-04-11T21:43:46.203Z,21.80
2018-04-11T21:46:14.885Z,18.77
2018-04-11T21:48:43.281Z,16.48
2018-04-11T21:51:11.691Z,16.30
2018-04-11T21:53:40.870Z,19.02
2018-04-11T21:56:09.265Z,21.05
2018-04-11T21:58:42.978Z,16.45
2018-04-11T22:01:11.381Z,21.35
2018-04-11T22:03:40.111Z,16.50
2018-04-11T22:06:08.508Z,16.75
2018-04-11T22:08:36.897Z,15.57
2018-04-11T22:11:06.097Z,19.42
2018-04-11T22:13:35.244Z,16.52
2018-04-11T22:16:03.668Z,15.20
2018-04-11T22:18:32.837Z,23.83
2018-04-11T22:21:01.510Z,19.35
2018-04-11T22:23:29.942Z,21.40
2018-04-11T22:25:59.097Z,14.77
2018-04-11T22:28:27.517Z,22.17
2018-04-11T22:30:56.672Z,19.55
2018-04-11T22:33:26.765Z,17.40
2018-04-11T22:35:55.667Z,28.33
2018-04-11T22:38:24.373Z,16.52
2018-04-11T22:40:52.769Z,28.85
2018-04-11T22:43:25.399Z,18.25
2018-04-11T22:45:53.800Z,20.17
2018-04-11T22:48:22.197Z,21.08
2018-04-11T22:50:51.447Z,24.37
2018-04-11T22:53:20.699Z,23.73
2018-04-11T22:55:49.426Z,23.52
2018-04-11T22:58:17.815Z,15.05
2018-04-11T23:00:46.521Z,30.00
2018-04-11T23:03:14.902Z,18.42
2018-04-11T23:05:43.280Z,28.52
2018-04-11T23:08:11.680Z,17.83
2018-04-11T23:10:40.081Z,19.27
2018-04-11T23:13:09.892Z,25.77
2018-04-11T23:15:39.066Z,14.75
2018-04-11T23:18:07.517Z,26.87
2018-04-11T23:20:35.916Z,19.20
2018-04-11T23:23:04.301Z,23.40
2018-04-11T23:25:34.245Z,21.27
2018-04-11T23:28:03.393Z,15.00
2018-04-11T23:30:31.797Z,17.33
2018-04-11T23:33:00.177Z,17.33
2018-04-11T23:35:28.610Z,14.93
2018-04-11T23:38:07.512Z,32.53
2018-04-11T23:40:36.064Z,18.08
2018-04-11T23:43:05.457Z,24.42
2018-04-11T23:45:33.849Z,19.62
2018-04-11T23:48:02.261Z,19.55
2018-04-11T23:50:30.639Z,23.67
2018-04-11T23:52:59.053Z,14.38
2018-04-11T23:55:28.530Z,23.27
2018-04-11T23:57:57.134Z,29.50
